createdAt,value
2018-02-18T00:01:59.994Z,27.30
2018-02-18T00:04:28.021Z,26.60
2018-02-18T00:06:57.245Z,30.37
2018-02-18T00:09:26.457Z,33.97
2018-02-18T00:11:55.592Z,34.77
2018-02-18T00:14:34.802Z,33.73
2018-02-18T00:17:04.215Z,34.80
2018-02-18T00:19:34.537Z,30.17
2018-02-18T00:22:03.006Z,29.67
2018-02-18T00:24:31.738Z,29.80
2018-02-18T00:27:01.039Z,25.50
2018-02-18T00:29:29.966Z,27.37
2018-02-18T00:31:59.013Z,28.27
2018-02-18T00:34:26.743Z,24.97
2018-02-18T00:36:56.425Z,26.13
2018-02-18T00:39:24.548Z,27.07
2018-02-18T00:41:52.954Z,24.70
2018-02-18T00:44:22.538Z,21.27
2018-02-18T00:46:51.241Z,24.50
2018-02-18T00:49:20.983Z,24.90
2018-02-18T00:51:49.059Z,28.23
2018-02-18T00:54:17.342Z,25.00
2018-02-18T00:56:45.041Z,21.45
2018-02-18T00:59:13.144Z,21.90
2018-02-18T01:01:40.697Z,21.87
2018-02-18T01:04:09.248Z,30.03
2018-02-18T01:06:36.800Z,31.60
2018-02-18T01:09:05.206Z,27.60
2018-02-18T01:11:32.784Z,27.37
2018-02-18T01:14:00.332Z,28.73
2018-02-18T01:16:27.908Z,29.90
2018-02-18T01:18:55.462Z,30.50
2018-02-18T01:21:23.025Z,28.87
2018-02-18T01:23:51.807Z,25.05
2018-02-18T01:26:19.677Z,27.00
2018-02-18T01:28:47.327Z,25.10
2018-02-18T01:31:14.899Z,28.13
2018-02-18T01:33:42.445Z,26.77
2018-02-18T01:36:10.005Z,28.23
2018-02-18T01:38:37.583Z,26.33
2018-02-18T01:41:05.103Z,28.27
2018-02-18T01:43:32.685Z,27.30
2018-02-18T01:46:00.215Z,26.27
2018-02-18T01:48:27.788Z,27.17
2018-02-18T01:50:55.320Z,25.47
2018-02-18T01:53:22.892Z,25.67
2018-02-18T01:55:50.446Z,24.17
2018-02-18T01:58:18.027Z,21.63
2018-02-18T02:00:45.600Z,21.97
2018-02-18T02:03:13.223Z,22.07
2018-02-18T02:05:40.784Z,24.67
2018-02-18T02:08:08.331Z,26.17
2018-02-18T02:10:35.910Z,23.92
2018-02-18T02:13:03.438Z,23.03
2018-02-18T02:15:31.064Z,23.43
2018-02-18T02:17:58.615Z,22.43
2018-02-18T02:20:26.195Z,21.60
2018-02-18T02:22:53.720Z,24.73
2018-02-18T02:25:21.269Z,23.23
2018-02-18T02:27:48.852Z,26.55
2018-02-18T02:30:16.422Z,24.83
2018-02-18T02:32:44.007Z,22.40
2018-02-18T02:35:11.535Z,24.07
2018-02-18T02:37:39.106Z,20.43
2018-02-18T02:40:06.637Z,22.67
2018-02-18T02:42:34.208Z,22.43
2018-02-18T02:45:01.755Z,21.30
2018-02-18T02:47:30.112Z,22.48
2018-02-18T02:49:57.672Z,22.13
2018-02-18T02:52:25.197Z,21.27
2018-02-18T02:54:52.775Z,22.70
2018-02-18T02:57:20.301Z,24.33
2018-02-18T02:59:47.860Z,23.77
2018-02-18T03:02:15.410Z,22.63
2018-02-18T03:04:42.961Z,22.20
2018-02-18T03:07:10.518Z,22.03
2018-02-18T03:09:38.181Z,23.20
2018-02-18T03:12:05.743Z,22.30
2018-02-18T03:14:33.311Z,25.40
2018-02-18T03:17:00.977Z,27.63
2018-02-18T03:19:28.627Z,27.77
2018-02-18T03:21:56.206Z,27.10
2018-02-18T03:24:23.728Z,27.33
2018-02-18T03:26:51.279Z,29.47
2018-02-18T03:29:18.811Z,27.95
2018-02-18T03:31:46.436Z,31.00
2018-02-18T03:34:13.958Z,33.43
2018-02-18T03:36:41.487Z,33.10
2018-02-18T03:39:09.098Z,32.40
2018-02-18T03:41:36.640Z,35.80
2018-02-18T03:44:04.217Z,29.53
2018-02-18T03:46:31.878Z,31.60
2018-02-18T03:48:59.452Z,29.03
2018-02-18T03:51:27.102Z,30.23
2018-02-18T03:53:54.761Z,30.93
2018-02-18T03:56:22.311Z,28.97
2018-02-18T03:58:49.883Z,27.87
2018-02-18T04:01:17.409Z,29.23
2018-02-18T04:03:45.007Z,28.80
2018-02-18T04:06:12.566Z,31.67
2018-02-18T04:08:40.096Z,30.73
2018-02-18T04:11:07.668Z,35.20
2018-02-18T04:13:35.236Z,29.37
2018-02-18T04:16:02.799Z,31.20
2018-02-18T04:18:30.370Z,33.77
2018-02-18T04:20:58.028Z,30.60
2018-02-18T04:23:25.581Z,30.00
2018-02-18T04:25:53.134Z,26.80
2018-02-18T04:28:20.711Z,27.83
2018-02-18T04:30:48.236Z,27.90
2018-02-18T04:33:15.815Z,29.55
2018-02-18T04:35:43.372Z,26.25
2018-02-18T04:38:10.947Z,27.53
2018-02-18T04:40:38.494Z,32.36
2018-02-18T04:43:06.076Z,27.33
2018-02-18T04:45:33.679Z,26.47
2018-02-18T04:48:01.203Z,27.20
2018-02-18T04:50:28.832Z,29.37
2018-02-18T04:52:56.358Z,29.17
2018-02-18T04:55:23.906Z,29.93
2018-02-18T04:57:51.463Z,31.60
2018-02-18T05:00:19.072Z,29.47
2018-02-18T05:02:46.628Z,32.20
2018-02-18T05:05:14.274Z,31.27
2018-02-18T05:07:41.851Z,28.33
2018-02-18T05:10:09.418Z,30.10
2018-02-18T05:12:37.076Z,29.37
2018-02-18T05:15:04.732Z,26.12
2018-02-18T05:17:32.279Z,28.37
2018-02-18T05:19:59.851Z,30.67
2018-02-18T05:22:27.412Z,26.33
2018-02-18T05:24:54.938Z,28.13
2018-02-18T05:27:22.538Z,28.37
2018-02-18T05:29:50.058Z,27.57
2018-02-18T05:32:17.618Z,29.23
2018-02-18T05:34:45.144Z,26.77
2018-02-18T05:37:12.766Z,25.67
2018-02-18T05:39:40.325Z,24.67
2018-02-18T05:42:07.851Z,25.63
2018-02-18T05:44:35.455Z,25.13
2018-02-18T05:47:03.926Z,24.33
2018-02-18T05:49:31.589Z,22.90
2018-02-18T05:51:59.156Z,23.73
2018-02-18T05:54:26.738Z,21.45
2018-02-18T05:56:54.267Z,22.83
2018-02-18T05:59:21.823Z,23.17
2018-02-18T06:01:49.372Z,23.67
2018-02-18T06:04:17.047Z,23.43
2018-02-18T06:06:44.575Z,24.83
2018-02-18T06:09:12.131Z,24.43
2018-02-18T06:11:39.738Z,24.73
2018-02-18T06:14:07.280Z,24.37
2018-02-18T06:16:34.842Z,25.17
2018-02-18T06:19:02.387Z,28.17
2018-02-18T06:21:29.983Z,27.37
2018-02-18T06:23:57.506Z,27.33
2018-02-18T06:26:25.099Z,28.87
2018-02-18T06:28:52.647Z,30.13
2018-02-18T06:31:20.304Z,28.53
2018-02-18T06:33:47.858Z,27.77
2018-02-18T06:36:15.523Z,25.77
2018-02-18T06:38:43.053Z,28.37
2018-02-18T06:41:10.615Z,25.80
2018-02-18T06:43:38.211Z,28.47
2018-02-18T06:46:05.866Z,29.10
2018-02-18T06:48:34.187Z,28.17
2018-02-18T06:51:01.746Z,27.30
2018-02-18T06:53:29.317Z,27.87
2018-02-18T06:55:56.904Z,26.50
2018-02-18T06:58:24.422Z,26.67
2018-02-18T07:00:51.973Z,26.00
2018-02-18T07:03:19.589Z,26.83
2018-02-18T07:05:47.231Z,24.67
2018-02-18T07:08:14.832Z,26.63
2018-02-18T07:10:42.483Z,25.83
2018-02-18T07:13:10.012Z,25.25
2018-02-18T07:15:37.587Z,30.40
2018-02-18T07:18:05.158Z,26.63
2018-02-18T07:20:32.820Z,26.57
2018-02-18T07:23:00.390Z,28.60
2018-02-18T07:25:27.945Z,30.47
2018-02-18T07:27:55.528Z,27.70
2018-02-18T07:30:24.000Z,28.45
2018-02-18T07:32:51.552Z,30.10
2018-02-18T07:35:20.355Z,28.55
2018-02-18T07:40:26.307Z,31.10
2018-02-18T07:42:55.640Z,30.90
2018-02-18T07:45:23.575Z,31.03
2018-02-18T07:47:51.168Z,32.63
2018-02-18T07:50:19.413Z,32.07
2018-02-18T07:52:49.972Z,33.07
2018-02-18T07:55:20.920Z,32.70
2018-02-18T07:57:51.401Z,32.53
2018-02-18T08:00:21.174Z,32.43
2018-02-18T08:02:50.310Z,33.00
2018-02-18T08:05:18.790Z,33.10
2018-02-18T08:07:47.130Z,33.10
2018-02-18T08:10:14.689Z,34.10
2018-02-18T08:12:42.267Z,34.50
2018-02-18T08:15:09.858Z,33.30
2018-02-18T08:17:39.002Z,37.10
2018-02-18T08:20:07.608Z,34.23
2018-02-18T08:22:38.143Z,32.13
2018-02-18T08:25:08.600Z,33.97
2018-02-18T08:27:37.011Z,34.83
2018-02-18T08:30:06.066Z,33.33
2018-02-18T08:32:34.333Z,33.07
2018-02-18T08:35:03.812Z,32.80
2018-02-18T08:37:31.491Z,31.83
2018-02-18T08:39:59.015Z,34.45
2018-02-18T08:42:26.571Z,30.80
2018-02-18T08:44:54.120Z,33.47
2018-02-18T08:47:21.689Z,43.33
2018-02-18T08:49:49.224Z,37.87
2018-02-18T08:52:16.849Z,34.13
2018-02-18T08:54:44.405Z,32.67
2018-02-18T08:57:12.082Z,32.07
2018-02-18T08:59:39.758Z,32.90
2018-02-18T09:02:07.288Z,33.87
2018-02-18T09:04:34.856Z,30.77
2018-02-18T09:07:02.392Z,32.53
2018-02-18T09:09:30.593Z,32.87
2018-02-18T09:11:58.119Z,33.55
2018-02-18T09:14:26.264Z,34.43
2018-02-18T09:16:58.848Z,35.78
2018-02-18T09:19:26.627Z,31.97
2018-02-18T09:21:54.327Z,35.10
2018-02-18T09:24:22.606Z,36.22
2018-02-18T09:26:52.305Z,33.38
2018-02-18T09:29:22.975Z,36.70
2018-02-18T09:31:53.559Z,34.57
2018-02-18T09:34:22.367Z,36.17
2018-02-18T09:36:51.195Z,34.73
2018-02-18T09:39:22.526Z,36.20
2018-02-18T09:41:50.320Z,36.15
2018-02-18T09:44:18.126Z,37.13
2018-02-18T09:46:45.693Z,35.13
2018-02-18T09:49:13.274Z,32.43
2018-02-18T09:51:40.894Z,37.47
2018-02-18T09:54:08.507Z,46.23
2018-02-18T09:56:38.153Z,40.77
2018-02-18T09:59:05.715Z,36.03
2018-02-18T10:01:33.810Z,33.63
2018-02-18T10:04:01.366Z,35.13
2018-02-18T10:06:28.894Z,35.30
2018-02-18T10:08:56.447Z,35.97
2018-02-18T10:11:24.000Z,36.77
2018-02-18T10:13:51.575Z,35.57
2018-02-18T10:16:19.100Z,35.27
2018-02-18T10:18:46.631Z,37.07
2018-02-18T10:21:14.285Z,38.33
2018-02-18T10:23:41.860Z,37.08
2018-02-18T10:26:09.413Z,36.67
2018-02-18T10:28:37.168Z,38.72
2018-02-18T10:31:04.749Z,36.27
2018-02-18T10:33:32.295Z,37.03
2018-02-18T10:36:01.963Z,37.67
2018-02-18T10:38:30.195Z,36.57
2018-02-18T10:40:57.904Z,40.07
2018-02-18T10:43:25.697Z,37.93
2018-02-18T10:45:53.235Z,42.10
2018-02-18T10:48:20.783Z,39.43
2018-02-18T10:50:48.334Z,38.73
2018-02-18T10:53:20.032Z,38.50
2018-02-18T10:55:52.727Z,35.88
2018-02-18T10:58:24.495Z,34.40
2018-02-18T11:00:53.551Z,31.87
2018-02-18T11:03:21.146Z,33.63
2018-02-18T11:05:48.676Z,30.97
2018-02-18T11:08:17.225Z,32.97
2018-02-18T11:10:45.048Z,29.53
2018-02-18T11:13:12.751Z,30.83
2018-02-18T11:15:40.335Z,28.50
2018-02-18T11:18:08.428Z,27.73
2018-02-18T11:20:36.015Z,27.43
2018-02-18T11:23:03.559Z,27.60
2018-02-18T11:25:31.415Z,27.80
2018-02-18T11:27:59.020Z,27.40
2018-02-18T11:30:26.720Z,24.53
2018-02-18T11:32:58.797Z,25.94
2018-02-18T11:35:26.440Z,25.87
2018-02-18T11:37:54.533Z,26.40
2018-02-18T11:40:22.084Z,28.73
2018-02-18T11:42:50.862Z,26.52
2018-02-18T11:45:18.651Z,25.63
2018-02-18T11:47:46.250Z,24.63
2018-02-18T11:50:13.838Z,25.00
2018-02-18T11:52:41.367Z,24.63
2018-02-18T11:55:08.893Z,23.20
2018-02-18T11:57:36.446Z,25.03
2018-02-18T12:00:04.027Z,23.50
2018-02-18T12:02:31.553Z,28.73
2018-02-18T12:04:59.107Z,24.63
2018-02-18T12:07:26.631Z,24.45
2018-02-18T12:09:54.180Z,23.23
2018-02-18T12:12:21.713Z,22.77
2018-02-18T12:14:49.261Z,23.70
2018-02-18T12:17:16.791Z,23.63
2018-02-18T12:19:44.515Z,23.47
2018-02-18T12:22:15.718Z,23.67
2018-02-18T12:24:46.314Z,24.40
2018-02-18T12:27:16.797Z,21.10
2018-02-18T12:29:49.674Z,22.60
2018-02-18T12:32:19.358Z,21.98
2018-02-18T12:34:47.848Z,22.83
2018-02-18T12:37:18.237Z,23.63
2018-02-18T12:39:48.228Z,23.17
2018-02-18T12:42:15.954Z,23.25
2018-02-18T12:44:43.488Z,22.27
2018-02-18T12:47:11.040Z,22.30
2018-02-18T12:49:38.646Z,21.13
2018-02-18T12:52:06.197Z,22.80
2018-02-18T12:54:33.748Z,22.57
2018-02-18T12:57:01.315Z,23.13
2018-02-18T12:59:31.652Z,23.75
2018-02-18T13:02:00.421Z,22.83
2018-02-18T13:04:29.666Z,23.33
2018-02-18T13:06:57.377Z,22.43
2018-02-18T13:09:26.460Z,22.73
2018-02-18T13:11:54.990Z,22.33
2018-02-18T13:14:24.158Z,23.30
2018-02-18T13:16:52.433Z,23.30
2018-02-18T13:19:20.148Z,22.60
2018-02-18T13:21:50.167Z,25.47
2018-02-18T13:24:20.693Z,24.03
2018-02-18T13:26:48.801Z,24.53
2018-02-18T13:29:16.385Z,27.50
2018-02-18T13:31:44.982Z,25.67
2018-02-18T13:34:12.564Z,26.47
2018-02-18T13:36:40.143Z,24.30
2018-02-18T13:39:08.296Z,23.50
2018-02-18T13:41:36.205Z,24.57
2018-02-18T13:44:03.743Z,20.75
2018-02-18T13:46:33.539Z,19.27
2018-02-18T13:49:03.525Z,21.17
2018-02-18T13:51:32.403Z,20.27
2018-02-18T13:54:02.898Z,21.80
2018-02-18T13:56:33.650Z,23.60
2018-02-18T13:59:01.387Z,22.17
2018-02-18T14:01:31.410Z,21.87
2018-02-18T14:03:59.671Z,21.95
2018-02-18T14:06:27.743Z,20.67
2018-02-18T14:08:57.110Z,21.20
2018-02-18T14:11:25.719Z,22.93
2018-02-18T14:13:53.689Z,22.37
2018-02-18T14:16:24.622Z,23.65
2018-02-18T14:18:52.369Z,21.83
2018-02-18T14:21:23.702Z,24.17
2018-02-18T14:23:57.707Z,22.93
2018-02-18T14:26:28.293Z,23.20
2018-02-18T14:28:57.634Z,22.03
2018-02-18T14:31:28.685Z,23.97
2018-02-18T14:34:00.116Z,23.63
2018-02-18T14:36:28.547Z,23.23
2018-02-18T14:38:59.098Z,23.42
2018-02-18T14:41:38.623Z,25.50
2018-02-18T14:44:17.998Z,24.70
2018-02-18T14:46:57.628Z,25.57
2018-02-18T14:49:36.953Z,24.43
2018-02-18T14:52:16.417Z,21.70
2018-02-18T14:57:44.786Z,21.47
2018-02-18T15:00:12.375Z,22.63
2018-02-18T15:02:39.916Z,23.60
2018-02-18T15:05:07.468Z,23.30
2018-02-18T15:07:35.024Z,21.73
2018-02-18T15:10:02.571Z,22.50
2018-02-18T15:12:30.143Z,22.67
2018-02-18T15:14:58.446Z,21.37
2018-02-18T15:17:26.005Z,21.10
2018-02-18T15:19:53.576Z,21.37
2018-02-18T15:22:21.235Z,20.90
2018-02-18T15:24:48.793Z,20.00
2018-02-18T15:27:16.366Z,18.70
2018-02-18T15:29:43.894Z,19.50
2018-02-18T15:32:11.419Z,18.63
2018-02-18T15:34:39.210Z,17.57
2018-02-18T15:37:06.746Z,19.13
2018-02-18T15:39:34.300Z,20.23
2018-02-18T15:42:01.870Z,18.35
2018-02-18T15:44:29.672Z,20.80
2018-02-18T15:46:57.220Z,18.17
2018-02-18T15:49:24.811Z,20.03
2018-02-18T15:51:52.365Z,20.87
2018-02-18T15:54:19.916Z,21.07
2018-02-18T15:56:47.467Z,21.67
2018-02-18T15:59:15.031Z,24.95
2018-02-18T16:01:43.169Z,20.80
2018-02-18T16:04:10.699Z,21.10
2018-02-18T16:06:38.273Z,23.50
2018-02-18T16:09:05.879Z,24.60
2018-02-18T16:11:33.455Z,26.87
2018-02-18T16:14:00.980Z,24.70
2018-02-18T16:16:28.507Z,29.20
2018-02-18T16:18:56.063Z,35.17
2018-02-18T16:21:23.589Z,33.10
2018-02-18T16:23:51.138Z,31.55
2018-02-18T16:26:18.659Z,30.33
2018-02-18T16:28:46.245Z,28.40
2018-02-18T16:31:13.771Z,29.30
2018-02-18T16:33:41.322Z,27.87
2018-02-18T16:36:08.851Z,27.03
2018-02-18T16:38:36.431Z,29.30
2018-02-18T16:41:03.951Z,29.23
2018-02-18T16:43:31.483Z,27.27
2018-02-18T16:45:59.034Z,26.47
2018-02-18T16:48:26.811Z,28.38
2018-02-18T16:50:54.357Z,27.33
2018-02-18T16:53:21.891Z,26.73
2018-02-18T16:55:49.603Z,26.37
2018-02-18T16:58:17.377Z,28.07
2018-02-18T17:00:45.033Z,28.13
2018-02-18T17:03:12.899Z,28.60
2018-02-18T17:05:40.455Z,28.67
2018-02-18T17:08:08.307Z,29.37
2018-02-18T17:10:36.048Z,30.10
2018-02-18T17:13:03.615Z,28.37
2018-02-18T17:15:31.184Z,26.80
2018-02-18T17:17:58.767Z,27.57
2018-02-18T17:20:26.318Z,27.97
2018-02-18T17:22:53.847Z,25.87
2018-02-18T17:25:21.415Z,28.73
2018-02-18T17:27:49.208Z,28.47
2018-02-18T17:30:17.600Z,28.42
2018-02-18T17:32:45.138Z,27.67
2018-02-18T17:35:12.787Z,27.20
2018-02-18T17:37:40.355Z,28.83
2018-02-18T17:40:07.911Z,27.60
2018-02-18T17:42:35.610Z,28.42
2018-02-18T17:45:03.179Z,29.97
2018-02-18T17:47:30.912Z,26.83
2018-02-18T17:49:58.543Z,28.50
2018-02-18T17:52:26.321Z,29.37
2018-02-18T17:54:53.878Z,31.67
2018-02-18T17:57:21.876Z,27.27
2018-02-18T17:59:49.477Z,26.60
2018-02-18T18:02:18.224Z,26.87
2018-02-18T18:04:45.782Z,27.00
2018-02-18T18:07:13.752Z,26.90
2018-02-18T18:09:41.488Z,28.77
2018-02-18T18:12:09.059Z,28.83
2018-02-18T18:14:36.691Z,28.87
2018-02-18T18:17:04.815Z,28.35
2018-02-18T18:19:32.571Z,28.77
2018-02-18T18:22:00.188Z,28.65
2018-02-18T18:24:27.752Z,28.27
2018-02-18T18:26:55.302Z,27.92
2018-02-18T18:29:22.906Z,24.80
2018-02-18T18:31:50.460Z,25.17
2018-02-18T18:34:18.036Z,29.43
2018-02-18T18:36:45.593Z,30.87
2018-02-18T18:39:13.209Z,32.17
2018-02-18T18:41:40.743Z,28.10
2018-02-18T18:44:08.296Z,26.83
2018-02-18T18:46:38.708Z,28.47
2018-02-18T18:49:06.368Z,28.83
2018-02-18T18:51:33.899Z,28.30
2018-02-18T18:54:01.456Z,32.47
2018-02-18T18:56:29.035Z,30.37
2018-02-18T18:59:01.669Z,32.80
2018-02-18T19:01:29.463Z,33.23
2018-02-18T19:03:57.284Z,33.10
2018-02-18T19:06:24.923Z,32.70
2018-02-18T19:08:54.221Z,34.53
2018-02-18T19:11:22.208Z,34.92
2018-02-18T19:13:52.447Z,40.40
2018-02-18T19:16:22.277Z,37.67
2018-02-18T19:18:52.300Z,36.13
2018-02-18T19:21:22.239Z,36.00
2018-02-18T19:23:51.220Z,37.97
2018-02-18T19:26:19.010Z,37.95
2018-02-18T19:28:46.584Z,39.70
2018-02-18T19:31:14.132Z,39.43
2018-02-18T19:33:41.719Z,38.30
2018-02-18T19:36:09.248Z,41.27
2018-02-18T19:38:37.319Z,44.33
2018-02-18T19:41:04.890Z,48.97
2018-02-18T19:43:32.595Z,49.30
2018-02-18T19:46:00.147Z,53.20
2018-02-18T19:48:27.683Z,50.30
2018-02-18T19:50:55.404Z,41.53
2018-02-18T19:53:23.203Z,41.03
2018-02-18T19:55:51.591Z,42.43
2018-02-18T19:58:19.351Z,39.10
2018-02-18T20:00:46.936Z,37.15
2018-02-18T20:03:14.515Z,36.40
2018-02-18T20:05:42.440Z,36.13
2018-02-18T20:08:10.198Z,36.63
2018-02-18T20:10:37.805Z,34.87
2018-02-18T20:13:07.050Z,35.40
2018-02-18T20:15:36.670Z,33.77
2018-02-18T20:18:04.474Z,37.37
2018-02-18T20:20:31.998Z,36.30
2018-02-18T20:22:59.942Z,34.20
2018-02-18T20:25:31.757Z,35.13
2018-02-18T20:28:18.346Z,33.37
2018-02-18T20:30:46.376Z,34.70
2018-02-18T20:33:16.274Z,41.87
2018-02-18T20:35:43.859Z,39.00
2018-02-18T20:38:13.868Z,39.33
2018-02-18T20:40:42.444Z,38.23
2018-02-18T20:43:11.227Z,37.97
2018-02-18T20:45:41.508Z,35.13
2018-02-18T20:48:13.295Z,34.83
2018-02-18T20:50:43.549Z,33.80
2018-02-18T20:53:11.982Z,33.40
2018-02-18T20:55:39.590Z,34.67
2018-02-18T20:58:07.112Z,33.17
2018-02-18T21:00:34.649Z,32.90
2018-02-18T21:03:02.225Z,33.47
2018-02-18T21:05:29.769Z,35.13
2018-02-18T21:07:59.600Z,35.50
2018-02-18T21:10:27.158Z,34.83
2018-02-18T21:12:55.976Z,32.43
2018-02-18T21:15:23.905Z,38.80
2018-02-18T21:17:51.487Z,36.78
2018-02-18T21:20:19.006Z,37.10
2018-02-18T21:22:46.544Z,36.93
2018-02-18T21:25:14.118Z,35.70
2018-02-18T21:27:41.640Z,38.77
2018-02-18T21:30:09.236Z,36.20
2018-02-18T21:32:36.774Z,37.92
2018-02-18T21:35:04.367Z,38.77
2018-02-18T21:37:31.903Z,41.67
2018-02-18T21:39:59.595Z,39.63
2018-02-18T21:42:27.155Z,38.60
2018-02-18T21:44:54.699Z,38.77
2018-02-18T21:47:22.435Z,41.33
2018-02-18T21:49:50.011Z,44.30
2018-02-18T21:52:17.544Z,44.03
2018-02-18T21:54:45.095Z,44.85
2018-02-18T21:57:12.651Z,43.03
2018-02-18T21:59:40.748Z,42.90
2018-02-18T22:02:09.402Z,43.90
2018-02-18T22:04:39.214Z,44.97
2018-02-18T22:07:06.973Z,51.30
2018-02-18T22:09:36.241Z,56.73
2018-02-18T22:12:04.265Z,49.50
2018-02-18T22:14:33.623Z,53.97
2018-02-18T22:17:02.804Z,49.77
2018-02-18T22:19:32.366Z,42.93
2018-02-18T22:22:01.307Z,44.77
2018-02-18T22:24:29.982Z,45.28
2018-02-18T22:26:58.176Z,44.72
2018-02-18T22:29:26.751Z,43.60
2018-02-18T22:31:55.021Z,46.37
2018-02-18T22:34:24.119Z,43.30
2018-02-18T22:36:52.203Z,43.30
2018-02-18T22:39:20.248Z,42.27
2018-02-18T22:41:49.611Z,41.75
2018-02-18T22:44:18.656Z,41.57
2018-02-18T22:46:47.318Z,42.95
2018-02-18T22:49:16.191Z,40.93
2018-02-18T22:51:45.387Z,41.13
2018-02-18T22:54:13.571Z,43.67
2018-02-18T22:56:41.692Z,42.57
2018-02-18T22:59:09.951Z,42.60
2018-02-18T23:01:41.207Z,43.10
2018-02-18T23:04:11.233Z,41.53
2018-02-18T23:06:38.795Z,40.00
2018-02-18T23:09:06.973Z,42.30
2018-02-18T23:11:34.935Z,39.42
2018-02-18T23:14:04.663Z,43.00
2018-02-18T23:16:32.786Z,39.60
2018-02-18T23:19:03.093Z,38.27
2018-02-18T23:21:31.408Z,39.80
2018-02-18T23:24:01.215Z,37.75
2018-02-18T23:26:29.050Z,38.03
2018-02-18T23:28:57.440Z,38.30
2018-02-18T23:31:27.276Z,38.07
2018-02-18T23:33:56.724Z,38.47
2018-02-18T23:36:26.494Z,34.53
2018-02-18T23:38:54.767Z,37.53
2018-02-18T23:41:22.292Z,36.37
2018-02-18T23:43:50.662Z,35.97
2018-02-18T23:46:18.295Z,49.22
2018-02-18T23:48:49.251Z,49.87
2018-02-18T23:51:16.900Z,43.30
2018-02-18T23:53:45.066Z,50.83
2018-02-18T23:56:12.627Z,41.35
2018-02-18T23:58:40.160Z,43.87
